createdAt,value
2023-05-15T00:01:32.382Z,10.67
2023-05-15T00:03:59.885Z,10.63
2023-05-15T00:06:28.085Z,10.58
2023-05-15T00:08:56.975Z,10.54
2023-05-15T00:11:27.727Z,10.56
2023-05-15T00:13:55.371Z,10.59
2023-05-15T00:16:22.960Z,10.55
2023-05-15T00:18:50.545Z,10.54
2023-05-15T00:21:18.120Z,10.55
2023-05-15T00:23:47.458Z,10.50
2023-05-15T00:26:16.307Z,10.47
2023-05-15T00:28:43.785Z,10.45
2023-05-15T00:31:13.079Z,10.50
2023-05-15T00:33:40.662Z,10.57
2023-05-15T00:36:09.073Z,10.61
2023-05-15T00:38:36.574Z,10.57
2023-05-15T00:41:05.770Z,10.49
2023-05-15T00:43:35.935Z,10.52
2023-05-15T00:46:03.682Z,10.57
2023-05-15T00:48:32.560Z,10.45
2023-05-15T00:51:00.336Z,10.32
2023-05-15T00:53:28.413Z,10.50
2023-05-15T00:55:58.111Z,10.50
2023-05-15T00:58:26.170Z,10.58
2023-05-15T01:00:55.172Z,10.58
2023-05-15T01:03:22.862Z,10.67
2023-05-15T01:05:50.685Z,10.53
2023-05-15T01:08:22.540Z,10.50
2023-05-15T01:10:52.927Z,10.63
2023-05-15T01:13:21.790Z,10.61
2023-05-15T01:15:50.222Z,10.58
2023-05-15T01:18:19.274Z,10.50
2023-05-15T01:20:58.096Z,10.46
2023-05-15T01:23:33.333Z,10.47
2023-05-15T01:26:26.943Z,10.47
2023-05-15T01:28:59.037Z,10.55
2023-05-15T01:31:27.823Z,10.48
2023-05-15T01:33:57.460Z,10.49
2023-05-15T01:36:28.152Z,10.51
2023-05-15T01:38:58.803Z,10.46
2023-05-15T01:41:29.583Z,10.50
2023-05-15T01:44:02.272Z,10.47
2023-05-15T01:46:32.523Z,10.45
2023-05-15T01:49:01.963Z,10.50
2023-05-15T01:51:30.009Z,10.55
2023-05-15T01:53:59.282Z,10.52
2023-05-15T01:56:27.262Z,10.48
2023-05-15T01:58:55.503Z,10.42
2023-05-15T02:01:25.046Z,10.55
2023-05-15T02:03:53.022Z,10.55
2023-05-15T02:06:21.671Z,10.35
2023-05-15T02:08:49.351Z,10.07
2023-05-15T02:11:16.839Z,10.18
2023-05-15T02:13:46.989Z,10.34
2023-05-15T02:16:14.529Z,10.32
2023-05-15T02:18:43.519Z,10.45
2023-05-15T02:21:11.146Z,10.46
2023-05-15T02:23:39.177Z,10.39
2023-05-15T02:26:25.452Z,10.40
2023-05-15T02:28:58.401Z,10.54
2023-05-15T02:31:29.699Z,10.74
2023-05-15T02:34:06.939Z,10.42
2023-05-15T02:36:34.873Z,10.18
2023-05-15T02:39:02.758Z,10.05
2023-05-15T02:41:32.393Z,10.16
2023-05-15T02:44:00.901Z,10.26
2023-05-15T02:46:28.923Z,10.30
2023-05-15T02:48:56.683Z,10.44
2023-05-15T02:51:25.541Z,10.64
2023-05-15T02:53:53.189Z,10.68
2023-05-15T02:56:21.413Z,10.58
2023-05-15T02:58:49.631Z,10.49
2023-05-15T03:01:17.195Z,10.36
2023-05-15T03:03:44.869Z,10.31
2023-05-15T03:06:12.404Z,10.31
2023-05-15T03:08:41.245Z,10.30
2023-05-15T03:11:08.848Z,10.26
2023-05-15T03:13:36.376Z,10.24
2023-05-15T03:16:03.963Z,10.22
2023-05-15T03:18:31.513Z,10.16
2023-05-15T03:20:59.102Z,10.19
2023-05-15T03:23:26.602Z,10.16
2023-05-15T03:25:55.663Z,10.13
2023-05-15T03:28:23.234Z,10.13
2023-05-15T03:30:50.779Z,10.10
2023-05-15T03:33:18.288Z,10.13
2023-05-15T03:35:45.960Z,10.22
2023-05-15T03:38:13.480Z,10.20
2023-05-15T03:40:40.993Z,10.18
2023-05-15T03:43:09.890Z,10.19
2023-05-15T03:45:37.380Z,10.13
2023-05-15T03:48:05.398Z,9.99
2023-05-15T03:50:33.296Z,10.05
2023-05-15T03:53:00.841Z,10.08
2023-05-15T03:55:28.526Z,10.14
2023-05-15T03:57:56.106Z,10.19
2023-05-15T04:00:25.320Z,10.11
2023-05-15T04:02:53.088Z,10.02
2023-05-15T04:05:21.787Z,9.95
2023-05-15T04:07:49.450Z,9.98
2023-05-15T04:10:16.956Z,9.98
2023-05-15T04:12:44.470Z,9.98
2023-05-15T04:15:16.854Z,10.04
2023-05-15T04:17:45.883Z,10.06
2023-05-15T04:20:15.325Z,10.17
2023-05-15T04:22:43.157Z,10.22
2023-05-15T04:25:11.880Z,10.07
2023-05-15T04:27:39.884Z,10.20
2023-05-15T04:30:08.989Z,10.28
2023-05-15T04:32:37.488Z,10.27
2023-05-15T04:35:10.202Z,10.33
2023-05-15T04:37:38.197Z,10.30
2023-05-15T04:40:08.065Z,10.19
2023-05-15T04:42:39.420Z,10.06
2023-05-15T04:45:09.125Z,10.11
2023-05-15T04:47:36.836Z,10.06
2023-05-15T04:50:07.231Z,10.07
2023-05-15T04:52:34.769Z,10.15
2023-05-15T04:55:02.312Z,10.33
2023-05-15T04:57:30.941Z,10.16
2023-05-15T04:59:58.953Z,10.27
2023-05-15T05:02:26.519Z,10.27
2023-05-15T05:04:54.189Z,10.41
2023-05-15T05:07:22.992Z,10.40
2023-05-15T05:09:50.517Z,10.47
2023-05-15T05:12:18.211Z,10.45
2023-05-15T05:14:45.788Z,10.32
2023-05-15T05:17:13.799Z,10.40
2023-05-15T05:19:41.723Z,10.52
2023-05-15T05:22:09.450Z,10.46
2023-05-15T05:24:38.356Z,10.53
2023-05-15T05:27:06.445Z,10.57
2023-05-15T05:29:34.108Z,10.61
2023-05-15T05:32:01.709Z,10.84
2023-05-15T05:34:29.288Z,10.80
2023-05-15T05:36:56.824Z,10.94
2023-05-15T05:39:24.468Z,10.98
2023-05-15T05:41:53.290Z,11.02
2023-05-15T05:44:20.805Z,11.09
2023-05-15T05:46:48.310Z,11.14
2023-05-15T05:49:15.870Z,11.22
2023-05-15T05:51:43.838Z,11.38
2023-05-15T05:54:11.338Z,11.32
2023-05-15T05:56:38.826Z,11.33
2023-05-15T05:59:07.679Z,11.44
2023-05-15T06:01:35.283Z,11.42
2023-05-15T06:04:02.873Z,11.38
2023-05-15T06:06:30.817Z,11.44
2023-05-15T06:08:58.341Z,11.57
2023-05-15T06:11:25.925Z,11.63
2023-05-15T06:13:53.425Z,11.70
2023-05-15T06:16:22.598Z,11.83
2023-05-15T06:18:50.205Z,11.93
2023-05-15T06:21:17.786Z,12.04
2023-05-15T06:23:45.797Z,12.06
2023-05-15T06:26:13.310Z,12.06
2023-05-15T06:28:40.817Z,12.15
2023-05-15T06:31:08.347Z,12.19
2023-05-15T06:33:37.172Z,12.21
2023-05-15T06:36:05.001Z,12.35
2023-05-15T06:38:32.476Z,12.32
2023-05-15T06:41:00.118Z,12.36
2023-05-15T06:43:27.666Z,12.42
2023-05-15T06:45:55.179Z,12.49
2023-05-15T06:48:22.929Z,12.60
2023-05-15T06:50:52.476Z,12.70
2023-05-15T06:53:21.006Z,12.87
2023-05-15T06:55:48.480Z,13.00
2023-05-15T06:58:17.943Z,13.10
2023-05-15T07:00:45.447Z,13.17
2023-05-15T07:03:14.319Z,13.22
2023-05-15T07:05:42.301Z,13.38
2023-05-15T07:08:11.139Z,13.53
2023-05-15T07:10:38.715Z,13.56
2023-05-15T07:13:06.554Z,13.56
2023-05-15T07:15:34.087Z,13.75
2023-05-15T07:18:01.730Z,13.92
2023-05-15T07:20:31.732Z,14.09
2023-05-15T07:23:00.088Z,14.21
2023-05-15T07:25:29.317Z,14.38
2023-05-15T07:27:57.001Z,14.50
2023-05-15T07:30:25.001Z,14.65
2023-05-15T07:32:52.695Z,14.82
2023-05-15T07:35:20.341Z,14.94
2023-05-15T07:37:47.851Z,15.08
2023-05-15T07:40:15.738Z,15.23
2023-05-15T07:42:45.118Z,15.49
2023-05-15T07:45:12.721Z,15.65
2023-05-15T07:47:42.693Z,15.91
2023-05-15T07:50:11.240Z,16.11
2023-05-15T07:52:38.856Z,16.29
2023-05-15T07:55:07.424Z,16.50
2023-05-15T07:57:34.900Z,16.67
2023-05-15T08:00:10.093Z,16.93
2023-05-15T08:02:40.645Z,17.04
2023-05-15T08:05:08.938Z,17.21
2023-05-15T08:07:36.490Z,17.30
2023-05-15T08:10:06.191Z,17.32
2023-05-15T08:12:34.026Z,17.44
2023-05-15T08:15:01.720Z,17.43
2023-05-15T08:17:30.533Z,17.57
2023-05-15T08:19:58.037Z,17.52
2023-05-15T08:22:25.528Z,17.38
2023-05-15T08:24:53.065Z,17.41
2023-05-15T08:27:20.597Z,17.29
2023-05-15T08:29:48.528Z,17.27
2023-05-15T08:32:16.313Z,17.21
2023-05-15T08:34:45.237Z,17.39
2023-05-15T08:37:12.734Z,17.45
2023-05-15T08:39:40.285Z,17.44
2023-05-15T08:42:10.351Z,17.57
2023-05-15T08:44:39.287Z,17.88
2023-05-15T08:47:07.277Z,18.10
2023-05-15T08:49:42.192Z,18.42
2023-05-15T08:52:11.363Z,18.57
2023-05-15T08:54:40.084Z,18.72
2023-05-15T08:57:08.212Z,18.51
2023-05-15T08:59:35.759Z,18.16
2023-05-15T09:02:03.553Z,18.49
2023-05-15T09:04:31.183Z,17.64
2023-05-15T09:07:00.318Z,17.56
2023-05-15T09:09:30.685Z,17.75
2023-05-15T09:11:59.748Z,17.67
2023-05-15T09:14:27.249Z,17.46
2023-05-15T09:16:55.254Z,17.34
2023-05-15T09:19:23.354Z,17.31
2023-05-15T09:21:50.912Z,17.27
2023-05-15T09:24:21.497Z,17.02
2023-05-15T09:27:02.997Z,17.02
2023-05-15T09:29:33.051Z,17.16
2023-05-15T09:32:03.784Z,16.62
2023-05-15T09:34:32.181Z,16.79
2023-05-15T09:37:00.036Z,16.67
2023-05-15T09:39:27.619Z,16.63
2023-05-15T09:42:07.031Z,16.80
2023-05-15T09:44:34.886Z,16.70
2023-05-15T09:47:02.481Z,16.73
2023-05-15T09:49:32.073Z,16.76
2023-05-15T09:52:01.004Z,16.95
2023-05-15T09:54:30.022Z,17.07
2023-05-15T09:57:08.530Z,16.97
2023-05-15T09:59:36.127Z,16.96
2023-05-15T10:02:03.727Z,17.13
2023-05-15T10:04:35.648Z,17.36
2023-05-15T10:07:03.338Z,17.41
2023-05-15T10:09:32.017Z,17.74
2023-05-15T10:12:00.952Z,17.48
2023-05-15T10:14:29.103Z,18.05
2023-05-15T10:16:56.818Z,18.27
2023-05-15T10:19:26.457Z,18.35
2023-05-15T10:21:54.844Z,18.08
2023-05-15T10:24:22.596Z,18.17
2023-05-15T10:26:50.258Z,18.25
2023-05-15T10:29:21.144Z,18.32
2023-05-15T10:31:49.727Z,18.20
2023-05-15T10:34:17.397Z,18.11
2023-05-15T10:36:45.426Z,18.08
2023-05-15T10:39:13.127Z,18.06
2023-05-15T10:41:41.260Z,17.95
2023-05-15T10:44:09.203Z,17.87
2023-05-15T10:46:38.571Z,17.88
2023-05-15T10:49:06.269Z,17.85
2023-05-15T10:51:36.752Z,17.92
2023-05-15T10:54:04.890Z,18.09
2023-05-15T10:56:33.191Z,17.93
2023-05-15T10:59:06.983Z,18.16
2023-05-15T11:01:35.656Z,18.28
2023-05-15T11:04:12.614Z,18.43
2023-05-15T11:06:41.385Z,18.52
2023-05-15T11:09:34.583Z,18.43
2023-05-15T11:12:02.893Z,18.34
2023-05-15T11:14:31.518Z,18.23
2023-05-15T11:17:06.112Z,18.12
2023-05-15T11:19:37.212Z,18.10
2023-05-15T11:22:17.536Z,18.08
2023-05-15T11:24:56.077Z,18.19
2023-05-15T11:27:24.667Z,18.16
2023-05-15T11:30:15.324Z,18.32
2023-05-15T11:32:50.457Z,18.41
2023-05-15T11:35:24.547Z,18.48
2023-05-15T11:37:54.280Z,18.69
2023-05-15T11:40:24.017Z,18.47
2023-05-15T11:43:09.285Z,18.28
2023-05-15T11:45:38.430Z,18.41
2023-05-15T11:48:07.672Z,18.75
2023-05-15T11:50:36.667Z,18.52
2023-05-15T11:53:05.700Z,18.96
2023-05-15T11:55:34.211Z,19.11
2023-05-15T11:58:01.721Z,19.05
2023-05-15T12:00:29.318Z,19.13
2023-05-15T12:02:57.033Z,19.25
2023-05-15T12:05:24.835Z,19.26
2023-05-15T12:07:53.869Z,19.25
2023-05-15T12:10:21.405Z,19.10
2023-05-15T12:12:50.036Z,18.63
2023-05-15T12:15:18.295Z,18.55
2023-05-15T12:17:46.431Z,18.43
2023-05-15T12:20:17.848Z,18.27
2023-05-15T12:22:45.831Z,18.06
2023-05-15T12:25:16.618Z,17.87
2023-05-15T12:27:44.384Z,17.93
2023-05-15T12:30:12.412Z,17.90
2023-05-15T12:32:40.359Z,17.47
2023-05-15T12:35:08.365Z,17.63
2023-05-15T12:37:36.727Z,17.64
2023-05-15T12:40:10.248Z,17.69
2023-05-15T12:42:42.791Z,17.79
2023-05-15T12:45:14.717Z,17.85
2023-05-15T12:47:42.996Z,18.00
2023-05-15T12:50:17.816Z,18.16
2023-05-15T12:52:51.243Z,18.43
2023-05-15T12:55:19.326Z,18.48
2023-05-15T12:57:48.176Z,18.67
2023-05-15T13:00:16.373Z,18.80
2023-05-15T13:02:44.986Z,18.96
2023-05-15T13:05:12.773Z,19.18
2023-05-15T13:07:42.093Z,19.41
2023-05-15T13:10:10.292Z,19.56
2023-05-15T13:12:38.776Z,19.40
2023-05-15T13:15:08.861Z,19.63
2023-05-15T13:17:36.521Z,19.55
2023-05-15T13:20:05.660Z,19.50
2023-05-15T13:22:33.170Z,19.51
2023-05-15T13:25:00.694Z,19.46
2023-05-15T13:27:28.239Z,19.57
2023-05-15T13:29:55.896Z,19.52
2023-05-15T13:32:26.011Z,19.26
2023-05-15T13:34:54.908Z,19.41
2023-05-15T13:37:22.821Z,19.29
2023-05-15T13:39:50.264Z,19.25
2023-05-15T13:42:17.781Z,18.92
2023-05-15T13:44:45.294Z,18.47
2023-05-15T13:47:12.856Z,18.63
2023-05-15T13:49:41.785Z,18.85
2023-05-15T13:52:09.445Z,18.68
2023-05-15T13:54:36.957Z,18.51
2023-05-15T13:57:04.771Z,18.70
2023-05-15T13:59:32.245Z,18.87
2023-05-15T14:01:59.743Z,18.86
2023-05-15T14:04:27.486Z,18.87
2023-05-15T14:06:56.349Z,18.89
2023-05-15T14:09:23.885Z,18.79
2023-05-15T14:11:51.415Z,18.94
2023-05-15T14:14:18.958Z,18.81
2023-05-15T14:16:46.669Z,18.94
2023-05-15T14:19:14.311Z,18.93
2023-05-15T14:21:41.841Z,18.94
2023-05-15T14:24:10.753Z,19.03
2023-05-15T14:26:38.567Z,19.13
2023-05-15T14:29:06.100Z,19.10
2023-05-15T14:31:33.614Z,18.99
2023-05-15T14:34:01.226Z,18.56
2023-05-15T14:36:28.703Z,18.58
2023-05-15T14:38:57.183Z,18.88
2023-05-15T14:41:28.466Z,18.96
2023-05-15T14:43:56.132Z,19.13
2023-05-15T14:46:23.768Z,19.34
2023-05-15T14:48:51.321Z,19.36
2023-05-15T14:51:19.992Z,19.25
2023-05-15T14:53:47.673Z,19.10
2023-05-15T14:56:16.551Z,19.15
2023-05-15T14:58:46.555Z,19.29
2023-05-15T15:01:14.068Z,19.33
2023-05-15T15:03:42.564Z,19.05
2023-05-15T15:06:10.244Z,19.09
2023-05-15T15:08:37.742Z,19.11
2023-05-15T15:11:06.357Z,18.57
2023-05-15T15:13:33.834Z,18.76
2023-05-15T15:16:02.725Z,19.02
2023-05-15T15:18:30.308Z,19.25
2023-05-15T15:20:57.881Z,19.32
2023-05-15T15:23:25.404Z,19.55
2023-05-15T15:25:52.888Z,19.65
2023-05-15T15:28:20.473Z,19.68
2023-05-15T15:30:48.017Z,19.70
2023-05-15T15:33:16.835Z,19.60
2023-05-15T15:35:44.741Z,19.39
2023-05-15T15:38:13.296Z,19.31
2023-05-15T15:40:41.518Z,18.96
2023-05-15T15:43:08.980Z,19.15
2023-05-15T15:45:36.546Z,19.21
2023-05-15T15:48:04.328Z,19.30
2023-05-15T15:50:33.265Z,19.31
2023-05-15T15:53:00.787Z,19.09
2023-05-15T15:55:28.301Z,19.28
2023-05-15T15:57:55.789Z,19.23
2023-05-15T16:00:23.441Z,19.31
2023-05-15T16:02:51.058Z,19.08
2023-05-15T16:05:18.635Z,19.03
2023-05-15T16:07:48.839Z,18.90
2023-05-15T16:10:16.461Z,18.81
2023-05-15T16:12:44.999Z,18.60
2023-05-15T16:15:22.268Z,18.79
2023-05-15T16:17:52.728Z,18.66
2023-05-15T16:20:20.863Z,18.65
2023-05-15T16:22:50.018Z,18.51
2023-05-15T16:25:17.608Z,18.42
2023-05-15T16:27:45.127Z,18.55
2023-05-15T16:30:14.017Z,18.44
2023-05-15T16:32:41.561Z,18.48
2023-05-15T16:35:09.838Z,18.39
2023-05-15T16:37:37.341Z,18.39
2023-05-15T16:40:07.591Z,18.54
2023-05-15T16:42:38.819Z,18.66
2023-05-15T16:45:07.806Z,18.69
2023-05-15T16:47:37.552Z,18.61
2023-05-15T16:50:06.000Z,18.70
2023-05-15T16:52:33.511Z,18.77
2023-05-15T16:55:01.090Z,18.90
2023-05-15T16:57:30.835Z,18.99
2023-05-15T16:59:59.088Z,18.82
2023-05-15T17:02:26.864Z,18.76
2023-05-15T17:04:54.427Z,18.66
2023-05-15T17:07:21.937Z,18.57
2023-05-15T17:09:49.397Z,18.44
2023-05-15T17:12:16.946Z,18.30
2023-05-15T17:14:45.837Z,18.16
2023-05-15T17:17:13.459Z,18.19
2023-05-15T17:19:41.079Z,18.13
2023-05-15T17:22:08.606Z,18.14
2023-05-15T17:24:49.929Z,18.04
2023-05-15T17:27:19.257Z,17.84
2023-05-15T17:29:48.646Z,17.75
2023-05-15T17:32:17.056Z,17.65
2023-05-15T17:34:44.994Z,17.51
2023-05-15T17:37:12.619Z,17.35
2023-05-15T17:39:40.132Z,17.23
2023-05-15T17:42:07.710Z,17.25
2023-05-15T17:44:35.463Z,17.31
2023-05-15T17:47:04.513Z,17.34
2023-05-15T17:49:34.115Z,17.27
2023-05-15T17:52:01.913Z,17.20
2023-05-15T17:54:29.450Z,17.13
2023-05-15T17:56:56.994Z,17.09
2023-05-15T17:59:24.489Z,17.09
2023-05-15T18:01:52.067Z,17.16
2023-05-15T18:04:21.029Z,17.17
2023-05-15T18:06:48.687Z,16.97
2023-05-15T18:09:16.336Z,17.00
2023-05-15T18:11:43.958Z,16.81
2023-05-15T18:14:11.470Z,16.48
2023-05-15T18:16:39.063Z,16.44
2023-05-15T18:19:07.125Z,16.56
2023-05-15T18:21:37.864Z,16.70
2023-05-15T18:24:05.996Z,16.55
2023-05-15T18:26:33.537Z,16.63
2023-05-15T18:29:01.037Z,16.46
2023-05-15T18:31:28.670Z,16.06
2023-05-15T18:33:56.198Z,15.79
2023-05-15T18:36:23.711Z,15.49
2023-05-15T18:38:52.549Z,15.54
2023-05-15T18:41:20.072Z,15.35
2023-05-15T18:43:47.553Z,15.03
2023-05-15T18:46:15.147Z,14.83
2023-05-15T18:48:42.693Z,14.60
2023-05-15T18:51:10.764Z,14.63
2023-05-15T18:53:38.288Z,14.51
2023-05-15T18:56:07.176Z,14.33
2023-05-15T18:58:35.881Z,14.28
2023-05-15T19:01:03.701Z,14.40
2023-05-15T19:03:31.314Z,14.29
2023-05-15T19:05:59.102Z,14.25
2023-05-15T19:08:26.604Z,13.91
2023-05-15T19:10:54.084Z,13.77
2023-05-15T19:13:22.922Z,13.69
2023-05-15T19:15:54.018Z,13.67
2023-05-15T19:18:21.667Z,13.47
2023-05-15T19:20:51.947Z,13.34
2023-05-15T19:23:20.502Z,13.45
2023-05-15T19:25:48.077Z,13.70
2023-05-15T19:28:15.686Z,13.82
2023-05-15T19:30:44.665Z,13.89
2023-05-15T19:33:13.234Z,13.99
2023-05-15T19:35:40.915Z,14.03
2023-05-15T19:38:08.596Z,14.10
2023-05-15T19:40:36.553Z,14.27
2023-05-15T19:43:04.200Z,14.16
2023-05-15T19:45:31.727Z,13.94
2023-05-15T19:48:01.302Z,13.83
2023-05-15T19:50:29.837Z,13.50
2023-05-15T19:52:59.255Z,13.32
2023-05-15T19:55:27.235Z,13.25
2023-05-15T19:57:57.273Z,13.52
2023-05-15T20:00:25.591Z,13.53
2023-05-15T20:02:53.757Z,13.59
2023-05-15T20:05:22.745Z,13.33
2023-05-15T20:07:50.253Z,13.37
2023-05-15T20:10:19.111Z,13.33
2023-05-15T20:12:46.925Z,13.42
2023-05-15T20:15:15.684Z,13.42
2023-05-15T20:17:43.670Z,13.46
2023-05-15T20:20:12.105Z,13.56
2023-05-15T20:22:42.857Z,13.71
2023-05-15T20:25:10.608Z,13.53
2023-05-15T20:27:38.220Z,13.43
2023-05-15T20:30:06.920Z,13.36
2023-05-15T20:32:34.675Z,13.35
2023-05-15T20:35:02.313Z,13.22
2023-05-15T20:37:30.258Z,13.18
2023-05-15T20:39:59.962Z,13.16
2023-05-15T20:42:28.420Z,12.88
2023-05-15T20:44:55.993Z,12.80
2023-05-15T20:47:23.585Z,12.73
2023-05-15T20:49:51.198Z,12.82
2023-05-15T20:52:19.066Z,12.74
2023-05-15T20:54:46.563Z,12.78
2023-05-15T20:57:15.495Z,12.72
2023-05-15T20:59:43.164Z,12.54
2023-05-15T21:02:11.083Z,12.40
2023-05-15T21:04:39.264Z,12.32
2023-05-15T21:07:06.896Z,12.34
2023-05-15T21:09:34.427Z,12.11
2023-05-15T21:12:03.806Z,12.10
2023-05-15T21:14:32.655Z,12.20
2023-05-15T21:17:00.232Z,12.16
2023-05-15T21:19:27.761Z,12.25
2023-05-15T21:21:55.255Z,12.12
2023-05-15T21:24:22.948Z,12.26
2023-05-15T21:26:50.475Z,12.38
2023-05-15T21:29:17.970Z,12.19
2023-05-15T21:31:46.915Z,12.25
2023-05-15T21:34:14.441Z,12.21
2023-05-15T21:36:42.025Z,12.29
2023-05-15T21:39:09.663Z,12.28
2023-05-15T21:41:37.160Z,12.19
2023-05-15T21:44:04.779Z,12.15
2023-05-15T21:46:32.282Z,12.30
2023-05-15T21:49:01.895Z,12.14
2023-05-15T21:51:29.422Z,11.94
2023-05-15T21:53:56.866Z,11.91
2023-05-15T21:56:24.371Z,11.86
2023-05-15T21:58:53.397Z,11.64
2023-05-15T22:01:20.969Z,11.50
2023-05-15T22:03:48.640Z,11.39
2023-05-15T22:06:17.540Z,11.39
2023-05-15T22:08:45.044Z,11.30
2023-05-15T22:11:12.602Z,11.24
2023-05-15T22:13:40.101Z,11.22
2023-05-15T22:16:07.724Z,11.31
2023-05-15T22:18:35.590Z,11.26
2023-05-15T22:21:03.503Z,11.33
2023-05-15T22:23:32.415Z,11.46
2023-05-15T22:25:59.974Z,11.38
2023-05-15T22:28:27.431Z,11.24
2023-05-15T22:30:54.916Z,11.33
2023-05-15T22:33:24.116Z,11.32
2023-05-15T22:35:52.782Z,11.38
2023-05-15T22:38:20.492Z,11.37
2023-05-15T22:40:51.632Z,11.40
2023-05-15T22:43:19.355Z,11.33
2023-05-15T22:45:46.867Z,11.34
2023-05-15T22:48:15.476Z,11.34
2023-05-15T22:50:43.658Z,11.35
2023-05-15T22:53:11.555Z,11.46
2023-05-15T22:55:39.118Z,11.42
2023-05-15T22:58:07.933Z,11.62
2023-05-15T23:00:35.534Z,11.67
2023-05-15T23:03:03.099Z,11.65
2023-05-15T23:05:30.777Z,11.57
2023-05-15T23:07:58.294Z,11.52
2023-05-15T23:10:26.185Z,11.50
2023-05-15T23:12:53.859Z,11.50
2023-05-15T23:15:22.743Z,11.52
2023-05-15T23:17:50.492Z,11.42
2023-05-15T23:20:18.689Z,11.35
2023-05-15T23:22:46.212Z,11.32
2023-05-15T23:25:13.889Z,11.28
2023-05-15T23:27:41.409Z,11.27
2023-05-15T23:30:10.100Z,11.28
2023-05-15T23:32:38.974Z,11.26
2023-05-15T23:35:07.524Z,11.34
2023-05-15T23:37:35.091Z,11.20
2023-05-15T23:40:05.487Z,11.24
2023-05-15T23:42:32.969Z,11.39
2023-05-15T23:45:00.662Z,11.29
2023-05-15T23:47:28.346Z,11.19
2023-05-15T23:49:57.183Z,11.14
2023-05-15T23:52:24.681Z,11.24
2023-05-15T23:54:52.141Z,11.03
2023-05-15T23:57:19.644Z,11.07
2023-05-15T23:59:47.130Z,11.13
